Time;durP1;ratioP1;P1;durP2;ratioP2;P2;SDS_P1;SDS_P2;PMS_P1;PMS_P2;Temp;Humidity;BMP_temperature;BMP_pressure;BME280_temperature;BME280_humidity;BME280_pressure;Samples;Min_cycle;Max_cycle;Signal;HPM_P1;HPM_P2
2023/01/11 00:00:28;;;;;;;;;;;;;;;;;;6145592;23;19916;-86
2023/01/11 00:02:58;;;;;;;;;;;;;;;;;;6144299;23;19927;-86
2023/01/11 00:05:26;;;;;;;;;;;;;;;;;;6170952;23;19920;-87
2023/01/11 00:08:10;;;;;;;;;;;;;;;;;;6205306;23;20337;-87
2023/01/11 00:10:38;;;;;;;;;;;;;;;;;;6169272;23;19990;-87
2023/01/11 00:13:05;;;;;;;;;;;;;;;;;;6142645;23;19962;-87
2023/01/11 00:15:44;;;;;;;;;;;;;;;;;;6146061;23;19974;-87
2023/01/11 00:18:12;;;;;;;;;;;;;;;;;;6169311;23;20242;-87
2023/01/11 00:20:39;;;;;;;;;;;;;;;;;;6155502;22;19943;-87
2023/01/11 00:23:06;;;;;;;;;;;;;;;;;;6262453;22;19918;-87
2023/01/11 00:25:34;;;;;;;;;;;;;;;;;;6259528;22;19919;-87
2023/01/11 00:28:04;;;;;;;;;;;;;;;;;;6261456;22;20020;-87
2023/01/11 00:30:31;;;;;;;;;;;;;;;;;;6264231;22;20258;-86
2023/01/11 00:32:58;;;;;;;;;;;;;;;;;;6263240;22;20856;-87
2023/01/11 00:35:25;;;;;;;;;;;;;;;;;;6287459;22;19925;-87
2023/01/11 00:37:52;;;;;;;;;;;;;;;;;;6259588;22;19930;-87
2023/01/11 00:40:25;;;;;;;;;;;;;;;;;;6294681;22;20263;-86
2023/01/11 00:47:55;;;;;;;;;;;;;;;;;;6287011;22;19919;-86
2023/01/11 00:49:00;;;;;;;;;;;;;;;;;;6284467;22;19926;-87
2023/01/11 00:51:26;;;;;;;;;;;;;;;;;;6260833;22;19919;-86
2023/01/11 00:53:53;;;;;;;;;;;;;;;;;;6262010;22;19915;-86
2023/01/11 00:56:21;;;;;;;;;;;;;;;;;;6259911;22;20251;-87
2023/01/11 00:58:48;;;;;;;;;;;;;;;;;;6290941;22;19930;-87
2023/01/11 01:01:19;;;;;;;;;;;;;;;;;;6260476;22;19926;-87
2023/01/11 01:03:46;;;;;;;;;;;;;;;;;;6263436;22;20332;-87
2023/01/11 01:06:12;;;;;;;;;;;;;;;;;;6259216;22;20403;-87
2023/01/11 01:08:45;;;;;;;;;;;;;;;;;;6284690;22;19925;-87
2023/01/11 01:11:12;;;;;;;;;;;;;;;;;;6259074;22;19919;-86
2023/01/11 01:16:27;;;;;;;;;;;;;;;;;;6286449;22;19930;-87
2023/01/11 01:18:58;;;;;;;;;;;;;;;;;;6260616;22;19919;-87
2023/01/11 01:21:24;;;;;;;;;;;;;;;;;;6219100;23;19958;-87
2023/01/11 01:24:06;;;;;;;;;;;;;;;;;;6219270;23;19923;-87
2023/01/11 01:26:32;;;;;;;;;;;;;;;;;;6199147;23;19943;-87
2023/01/11 01:29:14;;;;;;;;;;;;;;;;;;6198804;23;19919;-87
2023/01/11 01:31:55;;;;;;;;;;;;;;;;;;6226897;23;19923;-87
2023/01/11 01:34:23;;;;;;;;;;;;;;;;;;6204134;23;19920;-87
2023/01/11 01:36:50;;;;;;;;;;;;;;;;;;6201485;23;20344;-86
2023/01/11 01:39:18;;;;;;;;;;;;;;;;;;6202167;23;19919;-87
2023/01/11 01:41:45;;;;;;;;;;;;;;;;;;6201047;23;19920;-87
2023/01/11 01:44:13;;;;;;;;;;;;;;;;;;6226664;23;19920;-87
2023/01/11 01:46:52;;;;;;;;;;;;;;;;;;6224631;23;19920;-86
2023/01/11 01:49:25;;;;;;;;;;;;;;;;;;6227848;23;19941;-86
2023/01/11 01:51:51;;;;;;;;;;;;;;;;;;6222647;22;19926;-87
2023/01/11 01:54:18;;;;;;;;;;;;;;;;;;6262251;22;20568;-86
2023/01/11 01:56:45;;;;;;;;;;;;;;;;;;6269497;22;19956;-87
2023/01/11 01:59:13;;;;;;;;;;;;;;;;;;6264173;22;19926;-87
2023/01/11 02:01:58;;;;;;;;;;;;;;;;;;6287235;22;19942;-87
2023/01/11 02:04:26;;;;;;;;;;;;;;;;;;6268344;22;19998;-86
2023/01/11 02:06:53;;;;;;;;;;;;;;;;;;6265663;22;19945;-87
2023/01/11 02:09:21;;;;;;;;;;;;;;;;;;6263797;22;20248;-87
2023/01/11 02:11:48;;;;;;;;;;;;;;;;;;6265518;22;19914;-86
2023/01/11 02:14:29;;;;;;;;;;;;;;;;;;6236434;22;19915;-87
2023/01/11 02:17:11;;;;;;;;;;;;;;;;;;6209263;22;20002;-87
2023/01/11 02:19:37;;;;;;;;;;;;;;;;;;6208627;22;20237;-87
2023/01/11 02:22:03;;;;;;;;;;;;;;;;;;6206774;22;20398;-87
2023/01/11 02:24:30;;;;;;;;;;;;;;;;;;6209994;22;19919;-86
2023/01/11 02:27:01;;;;;;;;;;;;;;;;;;6207829;22;19919;-87
2023/01/11 02:29:28;;;;;;;;;;;;;;;;;;6203212;22;19981;-86
2023/01/11 02:31:59;;;;;;;;;;;;;;;;;;6260133;22;19919;-86
2023/01/11 02:34:26;;;;;;;;;;;;;;;;;;6260355;22;19929;-86
2023/01/11 02:36:57;;;;;;;;;;;;;;;;;;6260522;22;19926;-86
2023/01/11 02:39:24;;;;;;;;;;;;;;;;;;6208642;22;19958;-86
2023/01/11 02:47:24;;;;;;;;;;;;;;;;;;6295170;22;19915;-86
2023/01/11 02:49:51;;;;;;;;;;;;;;;;;;6267103;22;20037;-87
2023/01/11 02:52:19;;;;;;;;;;;;;;;;;;6266723;22;19919;-86
2023/01/11 02:54:47;;;;;;;;;;;;;;;;;;6292958;22;19946;-86
2023/01/11 02:57:22;;;;;;;;;;;;;;;;;;6296725;22;19930;-86
2023/01/11 02:59:49;;;;;;;;;;;;;;;;;;6294959;22;19972;-86
2023/01/11 03:02:16;;;;;;;;;;;;;;;;;;6292122;22;19919;-86
2023/01/11 03:04:44;;;;;;;;;;;;;;;;;;6265371;22;19919;-86
2023/01/11 03:07:10;;;;;;;;;;;;;;;;;;6291657;22;19930;-86
2023/01/11 03:09:38;;;;;;;;;;;;;;;;;;6292495;22;19919;-86
2023/01/11 03:15:00;;;;;;;;;;;;;;;;;;6290563;22;20381;-86
2023/01/11 03:17:27;;;;;;;;;;;;;;;;;;6264318;22;19919;-86
2023/01/11 03:19:53;;;;;;;;;;;;;;;;;;6293002;22;19921;-87
2023/01/11 03:22:26;;;;;;;;;;;;;;;;;;6292604;22;19972;-86
2023/01/11 03:24:57;;;;;;;;;;;;;;;;;;6290465;22;19979;-86
2023/01/11 03:27:27;;;;;;;;;;;;;;;;;;6292650;22;19968;-86
2023/01/11 03:29:57;;;;;;;;;;;;;;;;;;6267652;22;19919;-86
2023/01/11 03:32:34;;;;;;;;;;;;;;;;;;6294844;22;19915;-86
2023/01/11 03:35:01;;;;;;;;;;;;;;;;;;6289704;22;19919;-87
2023/01/11 03:37:33;;;;;;;;;;;;;;;;;;6266037;22;19941;-86
2023/01/11 03:40:02;;;;;;;;;;;;;;;;;;6264568;22;19925;-87
2023/01/11 03:42:30;;;;;;;;;;;;;;;;;;6266581;22;19923;-87
2023/01/11 03:44:57;;;;;;;;;;;;;;;;;;6290727;22;19967;-87
2023/01/11 03:47:24;;;;;;;;;;;;;;;;;;6293818;22;19915;-86
2023/01/11 03:50:00;;;;;;;;;;;;;;;;;;6261473;22;19923;-84
2023/01/11 03:52:31;;;;;;;;;;;;;;;;;;6266601;22;19995;-85
2023/01/11 03:54:58;;;;;;;;;;;;;;;;;;6265976;22;20272;-85
2023/01/11 03:57:24;;;;;;;;;;;;;;;;;;6267695;22;19927;-84
2023/01/11 03:59:52;;;;;;;;;;;;;;;;;;6266750;22;20032;-83
2023/01/11 04:02:19;;;;;;;;;;;;;;;;;;6265520;22;19919;-84
2023/01/11 04:04:46;;;;;;;;;;;;;;;;;;6265967;22;20051;-84
2023/01/11 04:07:17;;;;;;;;;;;;;;;;;;6286033;22;19925;-84
2023/01/11 04:09:53;;;;;;;;;;;;;;;;;;6291786;22;19945;-84
2023/01/11 04:12:19;;;;;;;;;;;;;;;;;;6288129;22;19988;-84
2023/01/11 04:14:52;;;;;;;;;;;;;;;;;;6293746;22;19918;-84
2023/01/11 04:17:20;;;;;;;;;;;;;;;;;;6264802;22;19953;-84
2023/01/11 04:19:47;;;;;;;;;;;;;;;;;;6259928;22;19958;-84
2023/01/11 04:22:14;;;;;;;;;;;;;;;;;;6263143;22;19990;-84
2023/01/11 04:24:42;;;;;;;;;;;;;;;;;;6269037;22;19926;-84
2023/01/11 04:27:09;;;;;;;;;;;;;;;;;;6264581;22;19923;-84
2023/01/11 04:29:36;;;;;;;;;;;;;;;;;;6266177;22;19918;-84
2023/01/11 04:32:03;;;;;;;;;;;;;;;;;;6263703;22;20072;-84
2023/01/11 04:34:30;;;;;;;;;;;;;;;;;;6265720;22;19914;-84
2023/01/11 04:36:56;;;;;;;;;;;;;;;;;;6264883;22;19922;-85
2023/01/11 04:39:29;;;;;;;;;;;;;;;;;;6292610;22;20008;-85
2023/01/11 04:44:47;;;;;;;;;;;;;;;;;;6291900;22;20336;-85
2023/01/11 04:47:16;;;;;;;;;;;;;;;;;;6290357;22;19919;-85
2023/01/11 04:49:49;;;;;;;;;;;;;;;;;;6240221;22;19926;-85
2023/01/11 04:52:30;;;;;;;;;;;;;;;;;;6238874;22;19919;-85
2023/01/11 04:54:57;;;;;;;;;;;;;;;;;;6258972;22;19925;-86
2023/01/11 04:57:26;;;;;;;;;;;;;;;;;;6209390;22;19923;-85
2023/01/11 04:59:52;;;;;;;;;;;;;;;;;;6233849;22;19925;-85
2023/01/11 05:02:20;;;;;;;;;;;;;;;;;;6204670;22;19965;-85
2023/01/11 05:04:50;;;;;;;;;;;;;;;;;;6207208;22;20013;-85
2023/01/11 05:07:16;;;;;;;;;;;;;;;;;;6207781;22;19919;-85
2023/01/11 05:09:46;;;;;;;;;;;;;;;;;;6255112;22;19923;-85
2023/01/11 05:12:13;;;;;;;;;;;;;;;;;;6203328;22;20400;-85
2023/01/11 05:14:39;;;;;;;;;;;;;;;;;;6206042;22;19923;-85
2023/01/11 05:17:29;;;;;;;;;;;;;;;;;;6269922;22;19965;-85
2023/01/11 05:19:59;;;;;;;;;;;;;;;;;;6208893;22;19915;-85
2023/01/11 05:22:25;;;;;;;;;;;;;;;;;;6210544;22;19931;-85
2023/01/11 05:24:57;;;;;;;;;;;;;;;;;;6292790;22;19926;-85
2023/01/11 05:27:24;;;;;;;;;;;;;;;;;;6292166;22;20320;-85
2023/01/11 05:29:51;;;;;;;;;;;;;;;;;;6294080;22;20097;-84
2023/01/11 05:32:18;;;;;;;;;;;;;;;;;;6266508;22;19919;-84
2023/01/11 05:34:49;;;;;;;;;;;;;;;;;;6297354;22;19919;-85
2023/01/11 05:37:16;;;;;;;;;;;;;;;;;;6265837;22;19918;-84
2023/01/11 05:39:43;;;;;;;;;;;;;;;;;;6268289;22;19915;-84
2023/01/11 05:42:13;;;;;;;;;;;;;;;;;;6290222;22;19919;-85
2023/01/11 05:47:25;;;;;;;;;;;;;;;;;;6294509;22;19919;-85
2023/01/11 05:49:52;;;;;;;;;;;;;;;;;;6295258;22;19922;-84
2023/01/11 05:52:20;;;;;;;;;;;;;;;;;;6267119;22;19950;-85
2023/01/11 05:54:46;;;;;;;;;;;;;;;;;;6268700;22;19944;-85
2023/01/11 05:57:13;;;;;;;;;;;;;;;;;;6290863;22;20006;-85
2023/01/11 05:59:40;;;;;;;;;;;;;;;;;;6292385;22;19926;-85
2023/01/11 06:02:06;;;;;;;;;;;;;;;;;;6264502;22;19994;-85
2023/01/11 06:04:33;;;;;;;;;;;;;;;;;;6267600;22;20012;-85
2023/01/11 06:07:10;;;;;;;;;;;;;;;;;;;;;
2023/01/11 06:09:38;;;;;;;;;;;;;;;;;;6295112;22;19921;-85
2023/01/11 06:12:05;;;;;;;;;;;;;;;;;;6266136;22;19925;-85
2023/01/11 06:14:36;;;;;;;;;;;;;;;;;;6265830;22;19923;-85
2023/01/11 06:17:03;;;;;;;;;;;;;;;;;;6265715;22;19919;-85
2023/01/11 06:19:32;;;;;;;;;;;;;;;;;;6261657;22;19915;-85
2023/01/11 06:22:00;;;;;;;;;;;;;;;;;;6234947;22;19945;-85
2023/01/11 06:24:31;;;;;;;;;;;;;;;;;;6234749;22;20345;-84
2023/01/11 06:26:57;;;;;;;;;;;;;;;;;;6259177;22;19919;-86
2023/01/11 06:29:28;;;;;;;;;;;;;;;;;;6230415;22;19919;-85
2023/01/11 06:31:57;;;;;;;;;;;;;;;;;;6257702;22;19919;-85
2023/01/11 06:34:44;;;;;;;;;;;;;;;;;;6260163;22;19968;-85
2023/01/11 06:37:13;;;;;;;;;;;;;;;;;;6231011;22;19923;-85
2023/01/11 06:39:39;;;;;;;;;;;;;;;;;;6232029;22;19943;-85
2023/01/11 06:42:05;;;;;;;;;;;;;;;;;;6231900;22;19915;-85
2023/01/11 06:44:37;;;;;;;;;;;;;;;;;;6232857;22;20061;-85
2023/01/11 06:47:07;;;;;;;;;;;;;;;;;;6257490;22;19997;-86
2023/01/11 06:49:34;;;;;;;;;;;;;;;;;;6170729;23;19935;-86
2023/01/11 06:52:15;;;;;;;;;;;;;;;;;;6172546;23;20422;-86
2023/01/11 06:54:42;;;;;;;;;;;;;;;;;;6148713;23;19931;-86
2023/01/11 06:57:10;;;;;;;;;;;;;;;;;;6146452;23;19998;-86
2023/01/11 06:59:38;;;;;;;;;;;;;;;;;;6175832;23;19919;-85
2023/01/11 07:02:05;;;;;;;;;;;;;;;;;;6193312;23;19973;-85
2023/01/11 07:04:43;;;;;;;;;;;;;;;;;;6175756;23;19920;-85
2023/01/11 07:07:09;;;;;;;;;;;;;;;;;;6171321;23;20031;-85
2023/01/11 07:09:37;;;;;;;;;;;;;;;;;;6148931;23;19944;-85
2023/01/11 07:12:06;;;;;;;;;;;;;;;;;;6171353;23;20308;-85
2023/01/11 07:14:32;;;;;;;;;;;;;;;;;;6147330;23;19987;-85
2023/01/11 07:16:58;;;;;;;;;;;;;;;;;;6143109;23;20363;-85
2023/01/11 07:19:24;;;;;;;;;;;;;;;;;;6170647;22;19916;-85
2023/01/11 07:21:53;;;;;;;;;;;;;;;;;;6261592;22;19919;-85
2023/01/11 07:24:19;;;;;;;;;;;;;;;;;;6256122;22;20336;-85
2023/01/11 07:26:45;;;;;;;;;;;;;;;;;;6235073;22;20420;-85
2023/01/11 07:29:11;;;;;;;;;;;;;;;;;;6253464;22;19916;-85
2023/01/11 07:31:37;;;;;;;;;;;;;;;;;;6258357;22;19915;-85
2023/01/11 07:34:03;;;;;;;;;;;;;;;;;;6230637;22;19965;-85
2023/01/11 07:36:29;;;;;;;;;;;;;;;;;;6233925;22;20048;-85
2023/01/11 07:38:58;;;;;;;;;;;;;;;;;;6232854;22;19915;-85
2023/01/11 07:44:09;;;;;;;;;;;;;;;;;;6290324;22;19954;-85
2023/01/11 07:46:35;;;;;;;;;;;;;;;;;;6293717;22;19919;-85
2023/01/11 07:49:01;;;;;;;;;;;;;;;;;;6266824;22;19940;-85
2023/01/11 07:51:27;;;;;;;;;;;;;;;;;;6273253;22;19918;-85
2023/01/11 07:54:02;;;;;;;;;;;;;;;;;;6268005;22;19925;-85
2023/01/11 07:56:28;;;;;;;;;;;;;;;;;;6296245;22;19923;-86
2023/01/11 07:58:57;;;;;;;;;;;;;;;;;;6270593;22;19918;-85
2023/01/11 08:01:28;;;;;;;;;;;;;;;;;;6270602;22;19950;-85
2023/01/11 08:03:59;;;;;;;;;;;;;;;;;;6268382;22;20209;-86
2023/01/11 08:06:25;;;;;;;;;;;;;;;;;;6296486;22;19915;-85
2023/01/11 08:08:53;;;;;;;;;;;;;;;;;;6270945;22;19925;-85
2023/01/11 08:16:49;;;;;;;;;;;;;;;;;;6294303;22;19923;-85
2023/01/11 08:19:15;;;;;;;;;;;;;;;;;;6294199;22;20308;-85
2023/01/11 08:21:43;;;;;;;;;;;;;;;;;;6273381;22;20517;-85
2023/01/11 08:24:09;;;;;;;;;;;;;;;;;;6270367;22;19918;-85
2023/01/11 08:26:35;;;;;;;;;;;;;;;;;;6270848;22;19989;-85
2023/01/11 08:29:01;;;;;;;;;;;;;;;;;;6262996;22;19918;-85
2023/01/11 08:31:29;;;;;;;;;;;;;;;;;;6267345;22;20446;-85
2023/01/11 08:33:58;;;;;;;;;;;;;;;;;;6295479;22;19918;-86
2023/01/11 08:36:26;;;;;;;;;;;;;;;;;;6272761;22;19922;-86
2023/01/11 08:38:52;;;;;;;;;;;;;;;;;;6296920;22;19918;-85
2023/01/11 08:41:18;;;;;;;;;;;;;;;;;;6262614;22;19938;-86
2023/01/11 08:43:44;;;;;;;;;;;;;;;;;;6266316;22;19954;-85
2023/01/11 08:46:10;;;;;;;;;;;;;;;;;;6286981;22;19930;-85
2023/01/11 08:48:39;;;;;;;;;;;;;;;;;;6260784;22;19918;-85
2023/01/11 08:51:05;;;;;;;;;;;;;;;;;;6286134;22;19969;-85
2023/01/11 08:53:31;;;;;;;;;;;;;;;;;;6264490;22;20008;-86
2023/01/11 08:55:57;;;;;;;;;;;;;;;;;;6285483;22;19923;-86
2023/01/11 08:58:24;;;;;;;;;;;;;;;;;;6293634;22;19990;-86
2023/01/11 09:00:50;;;;;;;;;;;;;;;;;;6270049;22;19922;-86
2023/01/11 09:03:17;;;;;;;;;;;;;;;;;;6266157;22;19918;-86
2023/01/11 09:05:43;;;;;;;;;;;;;;;;;;6268374;22;20243;-86
2023/01/11 09:08:09;;;;;;;;;;;;;;;;;;6291669;22;20484;-86
2023/01/11 09:10:38;;;;;;;;;;;;;;;;;;6265918;22;19927;-86
2023/01/11 09:13:07;;;;;;;;;;;;;;;;;;6261616;22;19925;-86
2023/01/11 09:15:33;;;;;;;;;;;;;;;;;;6289598;22;19972;-86
2023/01/11 09:17:59;;;;;;;;;;;;;;;;;;6258804;22;19972;-86
2023/01/11 09:20:25;;;;;;;;;;;;;;;;;;6260810;22;20298;-85
2023/01/11 09:22:51;;;;;;;;;;;;;;;;;;6262983;22;19919;-86
2023/01/11 09:25:17;;;;;;;;;;;;;;;;;;6287361;22;19972;-86
2023/01/11 09:27:43;;;;;;;;;;;;;;;;;;6287679;22;19958;-86
2023/01/11 09:30:09;;;;;;;;;;;;;;;;;;6286748;22;19923;-86
2023/01/11 09:32:35;;;;;;;;;;;;;;;;;;6260740;22;19948;-86
2023/01/11 09:35:02;;;;;;;;;;;;;;;;;;6262629;22;19919;-86
2023/01/11 09:37:28;;;;;;;;;;;;;;;;;;6288730;22;20217;-86
2023/01/11 09:39:58;;;;;;;;;;;;;;;;;;6265735;22;20324;-85
2023/01/11 09:42:28;;;;;;;;;;;;;;;;;;6265420;22;20239;-85
2023/01/11 09:45:01;;;;;;;;;;;;;;;;;;6264738;22;19931;-86
2023/01/11 09:47:27;;;;;;;;;;;;;;;;;;6293398;22;19968;-85
2023/01/11 09:49:54;;;;;;;;;;;;;;;;;;6268208;22;19919;-86
2023/01/11 09:52:22;;;;;;;;;;;;;;;;;;6265173;22;20362;-86
2023/01/11 09:54:48;;;;;;;;;;;;;;;;;;6268104;22;20332;-85
2023/01/11 09:57:14;;;;;;;;;;;;;;;;;;6265930;22;20214;-86
2023/01/11 09:59:43;;;;;;;;;;;;;;;;;;6267518;22;19926;-86
2023/01/11 10:02:10;;;;;;;;;;;;;;;;;;6290674;22;20012;-86
2023/01/11 10:04:40;;;;;;;;;;;;;;;;;;6294137;22;19914;-85
2023/01/11 10:07:11;;;;;;;;;;;;;;;;;;6263711;22;19943;-86
2023/01/11 10:09:40;;;;;;;;;;;;;;;;;;6293841;22;19998;-86
2023/01/11 10:12:07;;;;;;;;;;;;;;;;;;6265294;22;19940;-86
2023/01/11 10:14:34;;;;;;;;;;;;;;;;;;6291521;22;20342;-86
2023/01/11 10:17:00;;;;;;;;;;;;;;;;;;6263552;22;19972;-86
2023/01/11 10:19:28;;;;;;;;;;;;;;;;;;6265458;22;19958;-86
2023/01/11 10:21:59;;;;;;;;;;;;;;;;;;6288848;22;19957;-86
2023/01/11 10:24:25;;;;;;;;;;;;;;;;;;6265544;22;19918;-86
2023/01/11 10:26:51;;;;;;;;;;;;;;;;;;6292056;22;20379;-86
2023/01/11 10:40:09;;;;;;;;;;;;;;;;;;6292604;22;20373;-86
2023/01/11 10:42:43;;;;;;;;;;;;;;;;;;6289299;22;19918;-86
2023/01/11 10:45:11;;;;;;;;;;;;;;;;;;6291794;22;20035;-86
2023/01/11 10:47:40;;;;;;;;;;;;;;;;;;6293469;22;20346;-86
2023/01/11 10:50:07;;;;;;;;;;;;;;;;;;6264918;22;19981;-86
2023/01/11 10:52:33;;;;;;;;;;;;;;;;;;6292053;22;19919;-86
2023/01/11 10:55:01;;;;;;;;;;;;;;;;;;6283011;22;19929;-85
2023/01/11 10:57:27;;;;;;;;;;;;;;;;;;6266703;22;19922;-85
2023/01/11 10:59:55;;;;;;;;;;;;;;;;;;6291845;22;20228;-86
2023/01/11 11:02:21;;;;;;;;;;;;;;;;;;6262207;22;19930;-86
2023/01/11 11:04:47;;;;;;;;;;;;;;;;;;6264864;22;19919;-86
2023/01/11 11:07:13;;;;;;;;;;;;;;;;;;6264038;22;20275;-86
2023/01/11 11:09:39;;;;;;;;;;;;;;;;;;6292647;22;19918;-85
2023/01/11 11:12:07;;;;;;;;;;;;;;;;;;6262107;22;19918;-86
2023/01/11 11:14:33;;;;;;;;;;;;;;;;;;6290246;22;19947;-86
2023/01/11 11:16:59;;;;;;;;;;;;;;;;;;6289334;22;19927;-85
2023/01/11 11:19:25;;;;;;;;;;;;;;;;;;6264044;22;19925;-85
2023/01/11 11:21:52;;;;;;;;;;;;;;;;;;6260296;22;19919;-86
2023/01/11 11:24:21;;;;;;;;;;;;;;;;;;6260222;22;20283;-86
2023/01/11 11:26:47;;;;;;;;;;;;;;;;;;6290914;22;19921;-85
2023/01/11 11:29:13;;;;;;;;;;;;;;;;;;6263168;22;19925;-86
2023/01/11 11:31:39;;;;;;;;;;;;;;;;;;6288167;22;19918;-85
2023/01/11 11:34:05;;;;;;;;;;;;;;;;;;6261580;22;19918;-86
2023/01/11 11:36:31;;;;;;;;;;;;;;;;;;6265855;22;19923;-86
2023/01/11 11:38:57;;;;;;;;;;;;;;;;;;6258291;22;19923;-85
2023/01/11 11:41:23;;;;;;;;;;;;;;;;;;6264160;22;19971;-85
2023/01/11 11:43:49;;;;;;;;;;;;;;;;;;6264617;22;20329;-86
2023/01/11 11:46:15;;;;;;;;;;;;;;;;;;6286547;22;20930;-85
2023/01/11 11:48:41;;;;;;;;;;;;;;;;;;6265060;22;20077;-85
2023/01/11 11:51:07;;;;;;;;;;;;;;;;;;6263245;22;19960;-86
2023/01/11 11:53:33;;;;;;;;;;;;;;;;;;6266861;22;20595;-85
2023/01/11 11:55:59;;;;;;;;;;;;;;;;;;6264910;22;20006;-86
2023/01/11 11:58:25;;;;;;;;;;;;;;;;;;6262332;22;20013;-85
2023/01/11 12:00:57;;;;;;;;;;;;;;;;;;6266238;22;19919;-85
2023/01/11 12:03:31;;;;;;;;;;;;;;;;;;6262080;22;19919;-85
2023/01/11 12:06:03;;;;;;;;;;;;;;;;;;6289874;22;19922;-85
2023/01/11 12:08:40;;;;;;;;;;;;;;;;;;6262332;22;19919;-85
2023/01/11 12:11:15;;;;;;;;;;;;;;;;;;6266774;22;20339;-85
2023/01/11 12:13:44;;;;;;;;;;;;;;;;;;6265291;22;20361;-85
2023/01/11 12:16:13;;;;;;;;;;;;;;;;;;6265758;22;19923;-86
2023/01/11 12:18:51;;;;;;;;;;;;;;;;;;6266812;22;19945;-86
2023/01/11 12:21:38;;;;;;;;;;;;;;;;;;6269259;22;19918;-86
2023/01/11 12:24:28;;;;;;;;;;;;;;;;;;6267792;22;19921;-86
2023/01/11 12:27:00;;;;;;;;;;;;;;;;;;6264302;22;19975;-85
2023/01/11 12:29:34;;;;;;;;;;;;;;;;;;6266610;22;19926;-85
2023/01/11 12:32:27;;;;;;;;;;;;;;;;;;6287893;22;19994;-85
2023/01/11 12:34:59;;;;;;;;;;;;;;;;;;6264147;22;19921;-85
2023/01/11 12:37:25;;;;;;;;;;;;;;;;;;6287502;22;19923;-85
2023/01/11 12:40:00;;;;;;;;;;;;;;;;;;6265259;22;19923;-85
2023/01/11 12:42:35;;;;;;;;;;;;;;;;;;6265612;22;20298;-85
2023/01/11 12:45:20;;;;;;;;;;;;;;;;;;6288970;22;19919;-86
2023/01/11 12:47:49;;;;;;;;;;;;;;;;;;6267307;22;20228;-85
2023/01/11 12:50:15;;;;;;;;;;;;;;;;;;6262539;22;20245;-85
2023/01/11 12:55:31;;;;;;;;;;;;;;;;;;6270310;22;19989;-85
2023/01/11 12:58:12;;;;;;;;;;;;;;;;;;6286757;22;19962;-85
2023/01/11 13:00:43;;;;;;;;;;;;;;;;;;6262424;22;20300;-85
2023/01/11 13:03:26;;;;;;;;;;;;;;;;;;6291146;22;20260;-85
2023/01/11 13:05:56;;;;;;;;;;;;;;;;;;6269033;22;19964;-85
2023/01/11 13:08:36;;;;;;;;;;;;;;;;;;;;;
2023/01/11 13:11:07;;;;;;;;;;;;;;;;;;6284877;22;19918;-85
2023/01/11 13:13:36;;;;;;;;;;;;;;;;;;6290196;22;20690;-85
2023/01/11 13:16:02;;;;;;;;;;;;;;;;;;6262485;22;19964;-85
2023/01/11 13:18:45;;;;;;;;;;;;;;;;;;6274994;22;19919;-86
2023/01/11 13:21:14;;;;;;;;;;;;;;;;;;6261662;22;19926;-85
2023/01/11 13:23:42;;;;;;;;;;;;;;;;;;6265057;22;20259;-85
2023/01/11 13:26:22;;;;;;;;;;;;;;;;;;6294021;22;19957;-85
2023/01/11 13:28:56;;;;;;;;;;;;;;;;;;6266450;22;19919;-85
2023/01/11 13:31:22;;;;;;;;;;;;;;;;;;6265290;22;19926;-85
2023/01/11 13:33:48;;;;;;;;;;;;;;;;;;6264592;22;20355;-84
2023/01/11 13:36:21;;;;;;;;;;;;;;;;;;6284454;22;19923;-85
2023/01/11 13:38:50;;;;;;;;;;;;;;;;;;6258200;22;19919;-85
2023/01/11 13:41:19;;;;;;;;;;;;;;;;;;6260516;22;20000;-85
2023/01/11 13:43:55;;;;;;;;;;;;;;;;;;6287291;22;19918;-85
2023/01/11 13:46:30;;;;;;;;;;;;;;;;;;6263463;22;19965;-85
2023/01/11 13:49:05;;;;;;;;;;;;;;;;;;6264159;22;20320;-85
2023/01/11 13:51:31;;;;;;;;;;;;;;;;;;6296275;22;19989;-85
2023/01/11 13:53:57;;;;;;;;;;;;;;;;;;6265021;22;19954;-85
2023/01/11 13:56:26;;;;;;;;;;;;;;;;;;6288240;22;19929;-85
2023/01/11 13:59:00;;;;;;;;;;;;;;;;;;6262658;22;19914;-85
2023/01/11 14:01:46;;;;;;;;;;;;;;;;;;6296584;22;19976;-85
2023/01/11 14:04:27;;;;;;;;;;;;;;;;;;6300976;22;19926;-85
2023/01/11 14:19:53;;;;;;;;;;;;;;;;;;6307347;22;19954;-85
2023/01/11 14:32:07;;;;;;;;;;;;;;;;;;;;;
2023/01/11 14:43:34;;;;;;;;;;;;;;;;;;6319679;22;19969;-84
2023/01/11 14:51:45;;;;;;;;;;;;;;;;;;6319029;22;20285;-84
2023/01/11 14:54:11;;;;;;;;;;;;;;;;;;6254521;22;20650;-85
2023/01/11 14:56:38;;;;;;;;;;;;;;;;;;6264775;22;19927;-86
2023/01/11 14:59:14;;;;;;;;;;;;;;;;;;;;;
2023/01/11 15:01:46;;;;;;;;;;;;;;;;;;6297165;22;20251;-85
2023/01/11 15:04:15;;;;;;;;;;;;;;;;;;6286080;22;19989;-86
2023/01/11 15:06:41;;;;;;;;;;;;;;;;;;6264368;22;20311;-85
2023/01/11 15:09:09;;;;;;;;;;;;;;;;;;6264276;22;19930;-85
2023/01/11 15:11:39;;;;;;;;;;;;;;;;;;6269706;22;19918;-85
2023/01/11 15:14:08;;;;;;;;;;;;;;;;;;6262272;22;19918;-85
2023/01/11 15:19:19;;;;;;;;;;;;;;;;;;6289370;22;19950;-84
2023/01/11 15:21:45;;;;;;;;;;;;;;;;;;6264711;22;19953;-85
2023/01/11 15:24:11;;;;;;;;;;;;;;;;;;6264328;22;19944;-85
2023/01/11 15:26:37;;;;;;;;;;;;;;;;;;6295776;22;19918;-85
2023/01/11 15:29:03;;;;;;;;;;;;;;;;;;6267491;22;20157;-85
2023/01/11 15:31:29;;;;;;;;;;;;;;;;;;6293788;22;19933;-84
2023/01/11 15:33:58;;;;;;;;;;;;;;;;;;6272121;22;19963;-84
2023/01/11 15:36:24;;;;;;;;;;;;;;;;;;6294261;22;19922;-84
2023/01/11 15:38:51;;;;;;;;;;;;;;;;;;6296985;22;19987;-85
2023/01/11 15:44:11;;;;;;;;;;;;;;;;;;6292381;22;20377;-85
2023/01/11 15:46:52;;;;;;;;;;;;;;;;;;6271264;22;19923;-85
2023/01/11 15:49:18;;;;;;;;;;;;;;;;;;6296245;22;19925;-85
2023/01/11 15:51:44;;;;;;;;;;;;;;;;;;6271273;22;19922;-85
2023/01/11 15:54:10;;;;;;;;;;;;;;;;;;6294976;22;19941;-85
2023/01/11 15:56:39;;;;;;;;;;;;;;;;;;6296211;22;19926;-86
2023/01/11 15:59:05;;;;;;;;;;;;;;;;;;6266591;22;19919;-86
2023/01/11 16:01:32;;;;;;;;;;;;;;;;;;6299336;22;20015;-85
2023/01/11 16:03:59;;;;;;;;;;;;;;;;;;6268597;22;19918;-85
2023/01/11 16:06:27;;;;;;;;;;;;;;;;;;6296972;22;19935;-86
2023/01/11 16:08:53;;;;;;;;;;;;;;;;;;6270551;22;19914;-86
2023/01/11 16:11:28;;;;;;;;;;;;;;;;;;6273591;22;19993;-86
2023/01/11 16:13:54;;;;;;;;;;;;;;;;;;6268847;22;19953;-86
2023/01/11 16:16:27;;;;;;;;;;;;;;;;;;6269559;22;20332;-86
2023/01/11 16:18:56;;;;;;;;;;;;;;;;;;6268480;22;19922;-86
2023/01/11 16:21:25;;;;;;;;;;;;;;;;;;6294688;22;20341;-86
2023/01/11 16:23:51;;;;;;;;;;;;;;;;;;6289074;22;19968;-86
2023/01/11 16:26:20;;;;;;;;;;;;;;;;;;6264039;22;19926;-86
2023/01/11 16:28:46;;;;;;;;;;;;;;;;;;6266721;22;19979;-86
2023/01/11 16:31:12;;;;;;;;;;;;;;;;;;6262147;22;19961;-86
2023/01/11 16:33:38;;;;;;;;;;;;;;;;;;6293899;22;19914;-85
2023/01/11 16:36:07;;;;;;;;;;;;;;;;;;6269077;22;19919;-86
2023/01/11 16:38:36;;;;;;;;;;;;;;;;;;6296990;22;20358;-86
2023/01/11 16:41:04;;;;;;;;;;;;;;;;;;6265584;22;19919;-86
2023/01/11 16:43:33;;;;;;;;;;;;;;;;;;6293556;22;19919;-86
2023/01/11 16:45:59;;;;;;;;;;;;;;;;;;6267439;22;19979;-86
2023/01/11 16:48:28;;;;;;;;;;;;;;;;;;6270063;22;19993;-85
2023/01/11 16:50:54;;;;;;;;;;;;;;;;;;6265281;22;20425;-86
2023/01/11 16:53:20;;;;;;;;;;;;;;;;;;6266468;22;20418;-86
2023/01/11 16:55:46;;;;;;;;;;;;;;;;;;6268621;22;19919;-86
2023/01/11 16:58:12;;;;;;;;;;;;;;;;;;6267068;22;19988;-86
2023/01/11 17:00:43;;;;;;;;;;;;;;;;;;6266736;22;19997;-86
2023/01/11 17:03:09;;;;;;;;;;;;;;;;;;6264012;22;19936;-85
2023/01/11 17:05:35;;;;;;;;;;;;;;;;;;6297217;22;20404;-86
2023/01/11 17:08:01;;;;;;;;;;;;;;;;;;6264367;22;19918;-86
2023/01/11 17:10:30;;;;;;;;;;;;;;;;;;6266366;22;19918;-86
2023/01/11 17:12:56;;;;;;;;;;;;;;;;;;6266374;22;19922;-85
2023/01/11 17:15:28;;;;;;;;;;;;;;;;;;6269239;22;20314;-85
2023/01/11 17:17:54;;;;;;;;;;;;;;;;;;6266109;22;19930;-85
2023/01/11 17:20:20;;;;;;;;;;;;;;;;;;6287842;22;19919;-86
2023/01/11 17:22:48;;;;;;;;;;;;;;;;;;6269597;22;19919;-86
2023/01/11 17:25:22;;;;;;;;;;;;;;;;;;6289772;22;20460;-86
2023/01/11 17:27:58;;;;;;;;;;;;;;;;;;6296730;22;20019;-86
2023/01/11 17:30:24;;;;;;;;;;;;;;;;;;6293856;22;19918;-86
2023/01/11 17:32:52;;;;;;;;;;;;;;;;;;6270835;22;19914;-86
2023/01/11 17:35:18;;;;;;;;;;;;;;;;;;6289677;22;20335;-85
2023/01/11 17:37:47;;;;;;;;;;;;;;;;;;6269838;22;19929;-86
2023/01/11 17:40:13;;;;;;;;;;;;;;;;;;6265721;22;19921;-86
2023/01/11 17:45:27;;;;;;;;;;;;;;;;;;6294080;22;19946;-86
2023/01/11 17:47:53;;;;;;;;;;;;;;;;;;6270462;22;20316;-86
2023/01/11 17:50:21;;;;;;;;;;;;;;;;;;6268097;22;20068;-85
2023/01/11 17:52:48;;;;;;;;;;;;;;;;;;6296154;22;19919;-86
2023/01/11 17:55:16;;;;;;;;;;;;;;;;;;6268544;22;19925;-86
2023/01/11 17:57:42;;;;;;;;;;;;;;;;;;6297782;22;19922;-86
2023/01/11 18:00:11;;;;;;;;;;;;;;;;;;6272307;22;19973;-86
2023/01/11 18:02:37;;;;;;;;;;;;;;;;;;6294592;22;19922;-86
2023/01/11 18:05:04;;;;;;;;;;;;;;;;;;6289362;22;19947;-85
2023/01/11 18:07:30;;;;;;;;;;;;;;;;;;6297084;22;19919;-84
2023/01/11 18:09:58;;;;;;;;;;;;;;;;;;6293274;22;19985;-85
2023/01/11 18:12:24;;;;;;;;;;;;;;;;;;6291580;22;19932;-85
2023/01/11 18:14:50;;;;;;;;;;;;;;;;;;6270446;22;19919;-85
2023/01/11 18:17:16;;;;;;;;;;;;;;;;;;6270155;22;20364;-84
2023/01/11 18:19:43;;;;;;;;;;;;;;;;;;6270595;22;19919;-84
2023/01/11 18:22:08;;;;;;;;;;;;;;;;;;6295948;22;19923;-85
2023/01/11 18:24:35;;;;;;;;;;;;;;;;;;6297532;22;20015;-85
2023/01/11 18:27:01;;;;;;;;;;;;;;;;;;6264603;22;20096;-84